CJT151 OPIS-VGHS
Flight info
| Callsign | CJT151 |
|---|---|
| Flight time | 2h 29m |
| Altitude | 37000 |
| Route | INDEK L509 SULOM A466 ASARI L509 GUGIP B345 KEVOD J71 PPT A201 RAJ G463 IDLOX |
| Aircraft | B763/H-SDE3FGHIM3RWXY/S |
Departure
| Time | 2026-04-22 08:24 |
|---|---|
| Airport | Islamabad International Airport (OPIS) |
Arrival
| Time | 2026-04-22 10:53 |
|---|---|
| Airport | Hazrat Shahjalal International Airport (VGHS) |
| Time | Latitude | Longitude | Altitude | Speed | Heading |
|---|---|---|---|---|---|
| 2026-04-22 08:12 | 33.54425 | 72.84448 | 1775 ft | 0 kts | 11° |
| 2026-04-22 08:18 | 33.54420 | 72.84447 | 1775 ft | 2 kts | 11° |
| 2026-04-22 08:18 | 33.54404 | 72.84443 | 1775 ft | 3 kts | 11° |
| 2026-04-22 08:19 | 33.54386 | 72.84435 | 1775 ft | 3 kts | 52° |
| 2026-04-22 08:19 | 33.54382 | 72.84413 | 1775 ft | 3 kts | 101° |
| 2026-04-22 08:19 | 33.54384 | 72.84405 | 1775 ft | 0 kts | 100° |
| 2026-04-22 08:21 | 33.54383 | 72.84408 | 1775 ft | 1 kts | 93° |
| 2026-04-22 08:21 | 33.54392 | 72.84425 | 1775 ft | 3 kts | 38° |
| 2026-04-22 08:21 | 33.54417 | 72.84417 | 1775 ft | 5 kts | 303° |
| 2026-04-22 08:21 | 33.54401 | 72.84378 | 1775 ft | 7 kts | 215° |
| 2026-04-22 08:22 | 33.54344 | 72.84354 | 1775 ft | 11 kts | 193° |
| 2026-04-22 08:22 | 33.54287 | 72.84340 | 1775 ft | 5 kts | 191° |
| 2026-04-22 08:22 | 33.54254 | 72.84332 | 1775 ft | 7 kts | 191° |
| 2026-04-22 08:22 | 33.54203 | 72.84324 | 1775 ft | 8 kts | 187° |
| 2026-04-22 08:23 | 33.54146 | 72.84312 | 1775 ft | 8 kts | 190° |
| 2026-04-22 08:23 | 33.54098 | 72.84298 | 1775 ft | 6 kts | 213° |
| 2026-04-22 08:23 | 33.54087 | 72.84258 | 1775 ft | 4 kts | 281° |
| 2026-04-22 08:23 | 33.54119 | 72.84075 | 1775 ft | 54 kts | 283° |
| 2026-04-22 08:24 | 33.54232 | 72.83370 | 1775 ft | 117 kts | 281° |
| 2026-04-22 08:24 | 33.54419 | 72.82192 | 1777 ft | 170 kts | 280° |
| 2026-04-22 08:24 | 33.54648 | 72.80730 | 2252 ft | 182 kts | 280° |
| 2026-04-22 08:24 | 33.54885 | 72.79242 | 3059 ft | 182 kts | 280° |
| 2026-04-22 08:25 | 33.55130 | 72.77752 | 3809 ft | 183 kts | 281° |
| 2026-04-22 08:25 | 33.55405 | 72.76245 | 4406 ft | 188 kts | 282° |
| 2026-04-22 08:25 | 33.55681 | 72.74727 | 5131 ft | 188 kts | 282° |
| 2026-04-22 08:25 | 33.55946 | 72.73117 | 5494 ft | 208 kts | 279° |
| 2026-04-22 08:26 | 33.55751 | 72.71310 | 5751 ft | 235 kts | 250° |
| 2026-04-22 08:26 | 33.54722 | 72.69698 | 6057 ft | 259 kts | 220° |
| 2026-04-22 08:26 | 33.53042 | 72.68796 | 6535 ft | 272 kts | 191° |
| 2026-04-22 08:26 | 33.51160 | 72.68923 | 7272 ft | 276 kts | 167° |
| 2026-04-22 08:27 | 33.49327 | 72.69690 | 7958 ft | 284 kts | 158° |
| 2026-04-22 08:27 | 33.47510 | 72.70684 | 8686 ft | 292 kts | 154° |
| 2026-04-22 08:27 | 33.45685 | 72.71785 | 9466 ft | 297 kts | 153° |
| 2026-04-22 08:27 | 33.43842 | 72.72936 | 10270 ft | 303 kts | 153° |
| 2026-04-22 08:28 | 33.41927 | 72.74132 | 10722 ft | 322 kts | 153° |
| 2026-04-22 08:28 | 33.39875 | 72.75438 | 10921 ft | 347 kts | 152° |
| 2026-04-22 08:28 | 33.37694 | 72.76867 | 11142 ft | 368 kts | 151° |
| 2026-04-22 08:28 | 33.35416 | 72.78374 | 11576 ft | 381 kts | 151° |
| 2026-04-22 08:29 | 33.33083 | 72.79921 | 12182 ft | 388 kts | 151° |
| 2026-04-22 08:29 | 33.30716 | 72.81492 | 12881 ft | 392 kts | 151° |
| 2026-04-22 08:29 | 33.28322 | 72.83065 | 13610 ft | 396 kts | 151° |
| 2026-04-22 08:29 | 33.25899 | 72.84641 | 14329 ft | 399 kts | 152° |
| 2026-04-22 08:30 | 33.23444 | 72.86215 | 15032 ft | 404 kts | 152° |
| 2026-04-22 08:30 | 33.20951 | 72.87778 | 15707 ft | 408 kts | 153° |
| 2026-04-22 08:30 | 33.18488 | 72.89489 | 16373 ft | 413 kts | 148° |
| 2026-04-22 08:30 | 33.16144 | 72.91490 | 17041 ft | 417 kts | 144° |
| 2026-04-22 08:31 | 33.13843 | 72.93603 | 17716 ft | 421 kts | 143° |
| 2026-04-22 08:31 | 33.11531 | 72.95757 | 18390 ft | 424 kts | 143° |
| 2026-04-22 08:31 | 33.06858 | 73.00084 | 19718 ft | 430 kts | 144° |
| 2026-04-22 08:32 | 33.04461 | 73.02227 | 20320 ft | 434 kts | 144° |
| 2026-04-22 08:32 | 33.02019 | 73.04377 | 20817 ft | 440 kts | 145° |
| 2026-04-22 08:32 | 32.99537 | 73.06540 | 21344 ft | 445 kts | 145° |
| 2026-04-22 08:32 | 32.97029 | 73.08720 | 21896 ft | 449 kts | 145° |
| 2026-04-22 08:33 | 32.94508 | 73.10921 | 22443 ft | 453 kts | 144° |
| 2026-04-22 08:33 | 32.91968 | 73.13156 | 22969 ft | 457 kts | 144° |
| 2026-04-22 08:33 | 32.89418 | 73.15419 | 23466 ft | 460 kts | 144° |
| 2026-04-22 08:33 | 32.86860 | 73.17712 | 23970 ft | 464 kts | 143° |
| 2026-04-22 08:34 | 32.84270 | 73.20011 | 24460 ft | 467 kts | 144° |
| 2026-04-22 08:34 | 32.81661 | 73.22314 | 24942 ft | 470 kts | 144° |
| 2026-04-22 08:34 | 32.79032 | 73.24627 | 25378 ft | 474 kts | 144° |
| 2026-04-22 08:34 | 32.76367 | 73.26935 | 25794 ft | 478 kts | 144° |
| 2026-04-22 08:35 | 32.73692 | 73.29300 | 26211 ft | 482 kts | 143° |
| 2026-04-22 08:35 | 32.71032 | 73.31727 | 26628 ft | 485 kts | 143° |
| 2026-04-22 08:35 | 32.68363 | 73.34211 | 27005 ft | 490 kts | 142° |
| 2026-04-22 08:35 | 32.65703 | 73.36719 | 27547 ft | 490 kts | 142° |
| 2026-04-22 08:36 | 32.63054 | 73.39226 | 28188 ft | 487 kts | 142° |
| 2026-04-22 08:36 | 32.60412 | 73.41719 | 28852 ft | 485 kts | 142° |
| 2026-04-22 08:36 | 32.57782 | 73.44183 | 29500 ft | 482 kts | 143° |
| 2026-04-22 08:36 | 32.55150 | 73.46621 | 30151 ft | 479 kts | 143° |
| 2026-04-22 08:37 | 32.52530 | 73.49027 | 30775 ft | 477 kts | 143° |
| 2026-04-22 08:37 | 32.49930 | 73.51429 | 31360 ft | 475 kts | 143° |
| 2026-04-22 08:37 | 32.47340 | 73.53836 | 31922 ft | 473 kts | 143° |
| 2026-04-22 08:37 | 32.44777 | 73.56242 | 32458 ft | 471 kts | 142° |
| 2026-04-22 08:38 | 32.42219 | 73.58649 | 32967 ft | 469 kts | 143° |
| 2026-04-22 08:38 | 32.39674 | 73.61029 | 33454 ft | 468 kts | 143° |
| 2026-04-22 08:38 | 32.37118 | 73.63393 | 33919 ft | 466 kts | 143° |
| 2026-04-22 08:38 | 32.34566 | 73.65724 | 34359 ft | 464 kts | 143° |
| 2026-04-22 08:39 | 32.32011 | 73.68046 | 34774 ft | 463 kts | 144° |
| 2026-04-22 08:39 | 32.29462 | 73.70349 | 35165 ft | 462 kts | 144° |
| 2026-04-22 08:39 | 32.26911 | 73.72646 | 35537 ft | 461 kts | 144° |
| 2026-04-22 08:39 | 32.24381 | 73.74951 | 35879 ft | 461 kts | 144° |
| 2026-04-22 08:40 | 32.21855 | 73.77255 | 36191 ft | 461 kts | 143° |
| 2026-04-22 08:40 | 32.19336 | 73.79590 | 36483 ft | 461 kts | 143° |
| 2026-04-22 08:40 | 32.16828 | 73.81945 | 36652 ft | 464 kts | 143° |
| 2026-04-22 08:41 | 32.11718 | 73.86679 | 36774 ft | 470 kts | 144° |
| 2026-04-22 08:41 | 32.06565 | 73.91390 | 36777 ft | 471 kts | 143° |
| 2026-04-22 08:42 | 32.01413 | 73.96167 | 36779 ft | 473 kts | 143° |
| 2026-04-22 08:42 | 31.96219 | 74.00919 | 36774 ft | 474 kts | 144° |
| 2026-04-22 08:43 | 31.91034 | 74.05689 | 36771 ft | 474 kts | 143° |
| 2026-04-22 08:43 | 31.85845 | 74.10454 | 36765 ft | 474 kts | 144° |
| 2026-04-22 08:44 | 31.80614 | 74.15138 | 36763 ft | 474 kts | 144° |
| 2026-04-22 08:44 | 31.75367 | 74.19791 | 36763 ft | 474 kts | 144° |
| 2026-04-22 08:45 | 31.70147 | 74.24475 | 36763 ft | 474 kts | 144° |
| 2026-04-22 08:45 | 31.64955 | 74.29202 | 36763 ft | 474 kts | 143° |
| 2026-04-22 08:46 | 31.59784 | 74.33953 | 36762 ft | 473 kts | 144° |
| 2026-04-22 08:46 | 31.54579 | 74.38655 | 36761 ft | 473 kts | 144° |
| 2026-04-22 08:47 | 31.49354 | 74.43317 | 36760 ft | 473 kts | 144° |
| 2026-04-22 08:47 | 31.44115 | 74.47961 | 36759 ft | 473 kts | 144° |
| 2026-04-22 08:48 | 31.38909 | 74.52644 | 36758 ft | 473 kts | 143° |
| 2026-04-22 08:48 | 31.33771 | 74.57435 | 36758 ft | 474 kts | 141° |
| 2026-04-22 08:49 | 31.28918 | 74.62622 | 36757 ft | 475 kts | 137° |
| 2026-04-22 08:49 | 31.24203 | 74.68003 | 36755 ft | 475 kts | 137° |
| 2026-04-22 08:50 | 31.19441 | 74.73318 | 36753 ft | 475 kts | 138° |
| 2026-04-22 08:50 | 31.14676 | 74.78627 | 36755 ft | 475 kts | 138° |
| 2026-04-22 08:51 | 31.09884 | 74.83899 | 36759 ft | 474 kts | 139° |
| 2026-04-22 08:51 | 31.05024 | 74.89082 | 36764 ft | 474 kts | 139° |
| 2026-04-22 08:52 | 31.00169 | 74.94269 | 36762 ft | 475 kts | 139° |
| 2026-04-22 08:52 | 30.95340 | 74.99500 | 36763 ft | 475 kts | 139° |
| 2026-04-22 08:53 | 30.90542 | 75.04771 | 36766 ft | 477 kts | 138° |
| 2026-04-22 08:53 | 30.85701 | 75.10147 | 36764 ft | 485 kts | 137° |
| 2026-04-22 08:54 | 30.80794 | 75.15523 | 36766 ft | 485 kts | 135° |
| 2026-04-22 08:54 | 30.76640 | 75.21674 | 36767 ft | 487 kts | 124° |
| 2026-04-22 08:55 | 30.72993 | 75.28274 | 36765 ft | 485 kts | 122° |
| 2026-04-22 08:55 | 30.69380 | 75.34870 | 36766 ft | 485 kts | 123° |
| 2026-04-22 08:56 | 30.65745 | 75.41454 | 36770 ft | 486 kts | 122° |
| 2026-04-22 08:56 | 30.62097 | 75.48056 | 36773 ft | 487 kts | 123° |
| 2026-04-22 08:57 | 30.58407 | 75.54610 | 36776 ft | 486 kts | 123° |
| 2026-04-22 08:57 | 30.54703 | 75.61160 | 36774 ft | 487 kts | 124° |
| 2026-04-22 08:58 | 30.50910 | 75.67635 | 36774 ft | 486 kts | 124° |
| 2026-04-22 08:58 | 30.47136 | 75.74119 | 36779 ft | 486 kts | 124° |
| 2026-04-22 08:59 | 30.43390 | 75.80607 | 36784 ft | 486 kts | 124° |
| 2026-04-22 08:59 | 30.39596 | 75.87058 | 36788 ft | 486 kts | 124° |
| 2026-04-22 09:00 | 30.35841 | 75.93542 | 36793 ft | 486 kts | 123° |
| 2026-04-22 09:00 | 30.32142 | 76.00072 | 36792 ft | 486 kts | 123° |
| 2026-04-22 09:01 | 30.28398 | 76.06571 | 36789 ft | 487 kts | 124° |
| 2026-04-22 09:01 | 30.24624 | 76.13022 | 36789 ft | 484 kts | 124° |
| 2026-04-22 09:02 | 30.20892 | 76.19483 | 36781 ft | 485 kts | 123° |
| 2026-04-22 09:02 | 30.17145 | 76.25939 | 36774 ft | 485 kts | 124° |
| 2026-04-22 09:03 | 30.13381 | 76.32386 | 36777 ft | 485 kts | 123° |
| 2026-04-22 09:03 | 30.09668 | 76.38847 | 36783 ft | 484 kts | 123° |
| 2026-04-22 09:04 | 30.05919 | 76.45285 | 36781 ft | 484 kts | 124° |
| 2026-04-22 09:04 | 30.02142 | 76.51709 | 36765 ft | 485 kts | 124° |
| 2026-04-22 09:05 | 29.98408 | 76.58164 | 36769 ft | 484 kts | 124° |
| 2026-04-22 09:05 | 29.94596 | 76.64545 | 36771 ft | 484 kts | 124° |
| 2026-04-22 09:06 | 29.90791 | 76.70923 | 36772 ft | 484 kts | 124° |
| 2026-04-22 09:06 | 29.86976 | 76.77300 | 36771 ft | 484 kts | 124° |
| 2026-04-22 09:07 | 29.83141 | 76.83658 | 36774 ft | 484 kts | 124° |
| 2026-04-22 09:07 | 29.79396 | 76.90070 | 36781 ft | 484 kts | 123° |
| 2026-04-22 09:08 | 29.75616 | 76.96478 | 36784 ft | 485 kts | 124° |
| 2026-04-22 09:08 | 29.71852 | 77.02889 | 36784 ft | 485 kts | 123° |
| 2026-04-22 09:09 | 29.68091 | 77.09307 | 36783 ft | 485 kts | 124° |
| 2026-04-22 09:09 | 29.64294 | 77.15681 | 36793 ft | 484 kts | 124° |
| 2026-04-22 09:10 | 29.60532 | 77.22084 | 36797 ft | 484 kts | 123° |
| 2026-04-22 09:10 | 29.56731 | 77.28444 | 36800 ft | 485 kts | 125° |
| 2026-04-22 09:11 | 29.52859 | 77.34774 | 36800 ft | 488 kts | 124° |
| 2026-04-22 09:11 | 29.48985 | 77.41199 | 36816 ft | 491 kts | 124° |
| 2026-04-22 09:12 | 29.45083 | 77.47609 | 36821 ft | 491 kts | 125° |
| 2026-04-22 09:12 | 29.41194 | 77.54024 | 36819 ft | 491 kts | 124° |
| 2026-04-22 09:13 | 29.37358 | 77.60484 | 36819 ft | 491 kts | 124° |
| 2026-04-22 09:13 | 29.33493 | 77.66895 | 36821 ft | 490 kts | 124° |
| 2026-04-22 09:14 | 29.29588 | 77.73276 | 36823 ft | 490 kts | 124° |
| 2026-04-22 09:14 | 29.25753 | 77.79696 | 36825 ft | 490 kts | 124° |
| 2026-04-22 09:15 | 29.21915 | 77.86125 | 36825 ft | 490 kts | 124° |
| 2026-04-22 09:15 | 29.18085 | 77.92553 | 36825 ft | 490 kts | 124° |
| 2026-04-22 09:16 | 29.14208 | 77.98946 | 36825 ft | 490 kts | 124° |
| 2026-04-22 09:16 | 29.10286 | 78.05304 | 36828 ft | 490 kts | 125° |
| 2026-04-22 09:17 | 29.06358 | 78.11650 | 36830 ft | 491 kts | 125° |
| 2026-04-22 09:17 | 29.02463 | 78.18036 | 36834 ft | 490 kts | 124° |
| 2026-04-22 09:18 | 28.98617 | 78.24447 | 36835 ft | 492 kts | 124° |
| 2026-04-22 09:18 | 28.94726 | 78.30852 | 36792 ft | 494 kts | 124° |
| 2026-04-22 09:19 | 28.90823 | 78.37287 | 36753 ft | 494 kts | 123° |
| 2026-04-22 09:19 | 28.86905 | 78.43678 | 36744 ft | 492 kts | 125° |
| 2026-04-22 09:20 | 28.82935 | 78.50019 | 36747 ft | 492 kts | 124° |
| 2026-04-22 09:20 | 28.78997 | 78.56392 | 36733 ft | 493 kts | 124° |
| 2026-04-22 09:21 | 28.75097 | 78.62808 | 36724 ft | 493 kts | 123° |
| 2026-04-22 09:21 | 28.71154 | 78.69242 | 36728 ft | 500 kts | 125° |
| 2026-04-22 09:22 | 28.67103 | 78.75659 | 36728 ft | 500 kts | 125° |
| 2026-04-22 09:22 | 28.63082 | 78.82096 | 36720 ft | 500 kts | 124° |
| 2026-04-22 09:23 | 28.59098 | 78.88568 | 36721 ft | 500 kts | 124° |
| 2026-04-22 09:23 | 28.55093 | 78.95001 | 36723 ft | 500 kts | 125° |
| 2026-04-22 09:24 | 28.51061 | 79.01417 | 36720 ft | 500 kts | 124° |
| 2026-04-22 09:24 | 28.47071 | 79.07871 | 36716 ft | 500 kts | 124° |
| 2026-04-22 09:25 | 28.43107 | 79.14333 | 36711 ft | 500 kts | 124° |
| 2026-04-22 09:25 | 28.39088 | 79.20769 | 36710 ft | 500 kts | 125° |
| 2026-04-22 09:26 | 28.35035 | 79.27156 | 36708 ft | 500 kts | 125° |
| 2026-04-22 09:26 | 28.30999 | 79.33565 | 36707 ft | 500 kts | 124° |
| 2026-04-22 09:27 | 28.26989 | 79.39999 | 36707 ft | 500 kts | 124° |
| 2026-04-22 09:27 | 28.22932 | 79.46400 | 36707 ft | 501 kts | 125° |
| 2026-04-22 09:28 | 28.18885 | 79.52786 | 36705 ft | 501 kts | 125° |
| 2026-04-22 09:28 | 28.14821 | 79.59171 | 36705 ft | 501 kts | 125° |
| 2026-04-22 09:29 | 28.10724 | 79.65521 | 36701 ft | 501 kts | 125° |
| 2026-04-22 09:29 | 28.06711 | 79.71950 | 36693 ft | 501 kts | 124° |
| 2026-04-22 09:30 | 28.02683 | 79.78365 | 36690 ft | 501 kts | 125° |
| 2026-04-22 09:30 | 27.98612 | 79.84743 | 36691 ft | 500 kts | 125° |
| 2026-04-22 09:31 | 27.94562 | 79.91117 | 36692 ft | 500 kts | 125° |
| 2026-04-22 09:31 | 27.90469 | 79.97462 | 36682 ft | 501 kts | 126° |
| 2026-04-22 09:32 | 27.86406 | 80.03835 | 36681 ft | 501 kts | 124° |
| 2026-04-22 09:32 | 27.82354 | 80.10282 | 36680 ft | 506 kts | 127° |
| 2026-04-22 09:33 | 27.78252 | 80.16720 | 36679 ft | 506 kts | 127° |
| 2026-04-22 09:33 | 27.74183 | 80.23178 | 36675 ft | 506 kts | 126° |
| 2026-04-22 09:34 | 27.70094 | 80.29620 | 36674 ft | 505 kts | 127° |
| 2026-04-22 09:34 | 27.65972 | 80.36009 | 36674 ft | 505 kts | 127° |
| 2026-04-22 09:35 | 27.59786 | 80.45577 | 36672 ft | 504 kts | 127° |
| 2026-04-22 09:35 | 27.55718 | 80.51990 | 36671 ft | 504 kts | 127° |
| 2026-04-22 09:36 | 27.51591 | 80.58351 | 36670 ft | 504 kts | 128° |
| 2026-04-22 09:36 | 27.47416 | 80.64660 | 36670 ft | 504 kts | 128° |
| 2026-04-22 09:37 | 27.43241 | 80.70969 | 36668 ft | 504 kts | 128° |
| 2026-04-22 09:37 | 27.39135 | 80.77335 | 36667 ft | 504 kts | 126° |
| 2026-04-22 09:38 | 27.35042 | 80.83724 | 36667 ft | 505 kts | 127° |
| 2026-04-22 09:38 | 27.30930 | 80.90103 | 36670 ft | 505 kts | 127° |
| 2026-04-22 09:39 | 27.26840 | 80.96491 | 36673 ft | 505 kts | 127° |
| 2026-04-22 09:39 | 27.22700 | 81.02857 | 36676 ft | 506 kts | 127° |
| 2026-04-22 09:40 | 27.18529 | 81.09193 | 36679 ft | 506 kts | 128° |
| 2026-04-22 09:40 | 27.14321 | 81.15493 | 36681 ft | 506 kts | 128° |
| 2026-04-22 09:41 | 27.10137 | 81.21810 | 36682 ft | 505 kts | 128° |
| 2026-04-22 09:41 | 27.05969 | 81.28141 | 36679 ft | 505 kts | 127° |
| 2026-04-22 09:42 | 27.02342 | 81.34848 | 36679 ft | 506 kts | 110° |
| 2026-04-22 09:42 | 27.01531 | 81.38656 | 36677 ft | 504 kts | 94° |
| 2026-04-22 09:42 | 27.01586 | 81.42547 | 36677 ft | 500 kts | 80° |
| 2026-04-22 09:43 | 27.03172 | 81.50086 | 36676 ft | 498 kts | 71° |
| 2026-04-22 09:43 | 27.04966 | 81.57568 | 36681 ft | 498 kts | 73° |
| 2026-04-22 09:44 | 27.06392 | 81.65160 | 36689 ft | 499 kts | 77° |
| 2026-04-22 09:44 | 27.07573 | 81.72821 | 36698 ft | 499 kts | 78° |
| 2026-04-22 09:45 | 27.08701 | 81.80485 | 36702 ft | 499 kts | 78° |
| 2026-04-22 09:45 | 27.09854 | 81.88150 | 36705 ft | 499 kts | 78° |
| 2026-04-22 09:46 | 27.10992 | 81.95823 | 36710 ft | 499 kts | 77° |
| 2026-04-22 09:46 | 27.12152 | 82.03435 | 36713 ft | 493 kts | 77° |
| 2026-04-22 09:47 | 27.13350 | 82.10996 | 36711 ft | 493 kts | 76° |
| 2026-04-22 09:47 | 27.14422 | 82.18588 | 36713 ft | 496 kts | 85° |
| 2026-04-22 09:48 | 27.14117 | 82.22444 | 36715 ft | 501 kts | 101° |
| 2026-04-22 09:48 | 27.12937 | 82.26112 | 36714 ft | 503 kts | 116° |
| 2026-04-22 09:48 | 27.09205 | 82.32771 | 36697 ft | 506 kts | 125° |
| 2026-04-22 09:49 | 27.05156 | 82.39254 | 36681 ft | 513 kts | 127° |
| 2026-04-22 09:49 | 27.01243 | 82.46004 | 36676 ft | 521 kts | 124° |
| 2026-04-22 09:50 | 26.97524 | 82.52960 | 36668 ft | 522 kts | 122° |
| 2026-04-22 09:50 | 26.93893 | 82.59987 | 36663 ft | 522 kts | 122° |
| 2026-04-22 09:51 | 26.90230 | 82.66981 | 36664 ft | 521 kts | 123° |
| 2026-04-22 09:51 | 26.86572 | 82.73974 | 36657 ft | 521 kts | 122° |
| 2026-04-22 09:52 | 26.82924 | 82.80966 | 36658 ft | 522 kts | 122° |
| 2026-04-22 09:52 | 26.79245 | 82.87940 | 36657 ft | 522 kts | 123° |
| 2026-04-22 09:53 | 26.75503 | 82.94880 | 36656 ft | 521 kts | 123° |
| 2026-04-22 09:53 | 26.71740 | 83.01783 | 36655 ft | 521 kts | 123° |
| 2026-04-22 09:54 | 26.67990 | 83.08704 | 36653 ft | 520 kts | 123° |
| 2026-04-22 09:54 | 26.64364 | 83.15626 | 36653 ft | 516 kts | 122° |
| 2026-04-22 09:55 | 26.60724 | 83.22489 | 36650 ft | 514 kts | 123° |
| 2026-04-22 09:55 | 26.57046 | 83.29317 | 36648 ft | 514 kts | 123° |
| 2026-04-22 09:56 | 26.53334 | 83.36097 | 36646 ft | 513 kts | 123° |
| 2026-04-22 09:56 | 26.49705 | 83.42947 | 36643 ft | 514 kts | 122° |
| 2026-04-22 09:57 | 26.46084 | 83.49810 | 36653 ft | 514 kts | 123° |
| 2026-04-22 09:57 | 26.42417 | 83.56636 | 36651 ft | 515 kts | 123° |
| 2026-04-22 09:58 | 26.38707 | 83.63442 | 36652 ft | 514 kts | 124° |
| 2026-04-22 09:58 | 26.34979 | 83.70220 | 36662 ft | 514 kts | 124° |
| 2026-04-22 09:59 | 26.31306 | 83.77047 | 36683 ft | 515 kts | 123° |
| 2026-04-22 09:59 | 26.27679 | 83.83914 | 36678 ft | 515 kts | 123° |
| 2026-04-22 10:00 | 26.23979 | 83.90718 | 36678 ft | 515 kts | 124° |
| 2026-04-22 10:00 | 26.20230 | 83.97497 | 36684 ft | 515 kts | 124° |
| 2026-04-22 10:01 | 26.16524 | 84.04301 | 36677 ft | 516 kts | 123° |
| 2026-04-22 10:01 | 26.12885 | 84.11165 | 36669 ft | 516 kts | 123° |
| 2026-04-22 10:02 | 26.09218 | 84.18018 | 36655 ft | 517 kts | 123° |
| 2026-04-22 10:02 | 26.05550 | 84.24884 | 36641 ft | 521 kts | 128° |
| 2026-04-22 10:03 | 26.01758 | 84.31750 | 36640 ft | 522 kts | 129° |
| 2026-04-22 10:03 | 25.97964 | 84.38622 | 36638 ft | 523 kts | 128° |
| 2026-04-22 10:04 | 25.94180 | 84.45510 | 36637 ft | 523 kts | 129° |
| 2026-04-22 10:04 | 25.90360 | 84.52364 | 36636 ft | 523 kts | 129° |
| 2026-04-22 10:05 | 25.86599 | 84.59262 | 36636 ft | 524 kts | 128° |
| 2026-04-22 10:05 | 25.82866 | 84.66178 | 36626 ft | 524 kts | 128° |
| 2026-04-22 10:06 | 25.79083 | 84.73051 | 36616 ft | 523 kts | 129° |
| 2026-04-22 10:06 | 25.75285 | 84.79908 | 36616 ft | 523 kts | 128° |
| 2026-04-22 10:07 | 25.71533 | 84.86785 | 36615 ft | 522 kts | 128° |
| 2026-04-22 10:07 | 25.67749 | 84.93635 | 36614 ft | 522 kts | 129° |
| 2026-04-22 10:08 | 25.63950 | 85.00418 | 36613 ft | 516 kts | 129° |
| 2026-04-22 10:08 | 25.60208 | 85.07163 | 36612 ft | 514 kts | 128° |
| 2026-04-22 10:09 | 25.58581 | 85.10700 | 36616 ft | 524 kts | 116° |
| 2026-04-22 10:09 | 25.57567 | 85.14595 | 36613 ft | 531 kts | 106° |
| 2026-04-22 10:09 | 25.56470 | 85.22703 | 36613 ft | 535 kts | 101° |
| 2026-04-22 10:10 | 25.55318 | 85.30806 | 36612 ft | 533 kts | 104° |
| 2026-04-22 10:10 | 25.53953 | 85.38857 | 36611 ft | 533 kts | 105° |
| 2026-04-22 10:11 | 25.52531 | 85.46888 | 36610 ft | 533 kts | 105° |
| 2026-04-22 10:11 | 25.51081 | 85.54921 | 36610 ft | 538 kts | 106° |
| 2026-04-22 10:12 | 25.49576 | 85.63064 | 36609 ft | 542 kts | 107° |
| 2026-04-22 10:12 | 25.48083 | 85.71213 | 36609 ft | 542 kts | 106° |
| 2026-04-22 10:13 | 25.46675 | 85.79400 | 36608 ft | 542 kts | 105° |
| 2026-04-22 10:13 | 25.45254 | 85.87571 | 36608 ft | 542 kts | 106° |
| 2026-04-22 10:14 | 25.43772 | 85.95708 | 36607 ft | 541 kts | 106° |
| 2026-04-22 10:14 | 25.42307 | 86.03856 | 36609 ft | 541 kts | 106° |
| 2026-04-22 10:15 | 25.40876 | 86.12009 | 36614 ft | 541 kts | 106° |
| 2026-04-22 10:15 | 25.39387 | 86.20142 | 36615 ft | 541 kts | 107° |
| 2026-04-22 10:16 | 25.37871 | 86.28276 | 36620 ft | 542 kts | 106° |
| 2026-04-22 10:16 | 25.36411 | 86.36428 | 36625 ft | 541 kts | 106° |
| 2026-04-22 10:17 | 25.34868 | 86.44539 | 36635 ft | 537 kts | 111° |
| 2026-04-22 10:17 | 25.32089 | 86.52043 | 36646 ft | 524 kts | 124° |
| 2026-04-22 10:18 | 25.28798 | 86.59209 | 36669 ft | 525 kts | 124° |
| 2026-04-22 10:18 | 25.25627 | 86.66480 | 36684 ft | 527 kts | 122° |
| 2026-04-22 10:19 | 25.22543 | 86.73804 | 36690 ft | 528 kts | 122° |
| 2026-04-22 10:19 | 25.19499 | 86.81169 | 36696 ft | 528 kts | 122° |
| 2026-04-22 10:20 | 25.16431 | 86.88509 | 36698 ft | 528 kts | 122° |
| 2026-04-22 10:20 | 25.13321 | 86.95829 | 36696 ft | 527 kts | 123° |
| 2026-04-22 10:21 | 25.10232 | 87.03180 | 36687 ft | 535 kts | 121° |
| 2026-04-22 10:21 | 25.07168 | 87.10671 | 36686 ft | 537 kts | 121° |
| 2026-04-22 10:22 | 25.04080 | 87.18159 | 36686 ft | 536 kts | 121° |
| 2026-04-22 10:22 | 25.00971 | 87.25597 | 36685 ft | 536 kts | 122° |
| 2026-04-22 10:23 | 24.97814 | 87.33018 | 36684 ft | 536 kts | 122° |
| 2026-04-22 10:23 | 24.94669 | 87.40450 | 36688 ft | 536 kts | 122° |
| 2026-04-22 10:24 | 24.91476 | 87.47855 | 36697 ft | 536 kts | 122° |
| 2026-04-22 10:24 | 24.88305 | 87.55262 | 36699 ft | 536 kts | 122° |
| 2026-04-22 10:25 | 24.85134 | 87.62665 | 36701 ft | 536 kts | 122° |
| 2026-04-22 10:25 | 24.82048 | 87.70134 | 36703 ft | 537 kts | 121° |
| 2026-04-22 10:26 | 24.78939 | 87.77575 | 36702 ft | 536 kts | 122° |
| 2026-04-22 10:26 | 24.75764 | 87.84979 | 36700 ft | 536 kts | 122° |
| 2026-04-22 10:27 | 24.72670 | 87.92420 | 36700 ft | 537 kts | 120° |
| 2026-04-22 10:27 | 24.69681 | 87.99931 | 36700 ft | 537 kts | 120° |
| 2026-04-22 10:28 | 24.66642 | 88.07396 | 36701 ft | 536 kts | 121° |
| 2026-04-22 10:28 | 24.63580 | 88.14849 | 36701 ft | 536 kts | 121° |
| 2026-04-22 10:29 | 24.60430 | 88.22246 | 36519 ft | 537 kts | 122° |
| 2026-04-22 10:29 | 24.58857 | 88.25934 | 36280 ft | 531 kts | 122° |
| 2026-04-22 10:29 | 24.57303 | 88.29596 | 36032 ft | 528 kts | 122° |
| 2026-04-22 10:30 | 24.55753 | 88.33224 | 35722 ft | 527 kts | 123° |
| 2026-04-22 10:30 | 24.54193 | 88.36865 | 35137 ft | 529 kts | 122° |
| 2026-04-22 10:30 | 24.52642 | 88.40524 | 34465 ft | 528 kts | 121° |
| 2026-04-22 10:30 | 24.51111 | 88.44170 | 33793 ft | 526 kts | 121° |
| 2026-04-22 10:31 | 24.49597 | 88.47805 | 33133 ft | 524 kts | 120° |
| 2026-04-22 10:31 | 24.48100 | 88.51427 | 32481 ft | 521 kts | 120° |
| 2026-04-22 10:31 | 24.46623 | 88.55026 | 31838 ft | 517 kts | 119° |
| 2026-04-22 10:31 | 24.45154 | 88.58612 | 31198 ft | 514 kts | 119° |
| 2026-04-22 10:32 | 24.43684 | 88.62150 | 30567 ft | 510 kts | 118° |
| 2026-04-22 10:32 | 24.42334 | 88.65727 | 29941 ft | 507 kts | 115° |
| 2026-04-22 10:32 | 24.41116 | 88.69330 | 29319 ft | 503 kts | 114° |
| 2026-04-22 10:32 | 24.39957 | 88.72918 | 28702 ft | 498 kts | 113° |
| 2026-04-22 10:33 | 24.38827 | 88.76481 | 28090 ft | 492 kts | 112° |
| 2026-04-22 10:33 | 24.37706 | 88.79994 | 27488 ft | 487 kts | 112° |
| 2026-04-22 10:33 | 24.36579 | 88.83454 | 26893 ft | 481 kts | 112° |
| 2026-04-22 10:33 | 24.35449 | 88.86876 | 26309 ft | 475 kts | 112° |
| 2026-04-22 10:34 | 24.34333 | 88.90247 | 25731 ft | 469 kts | 112° |
| 2026-04-22 10:34 | 24.33224 | 88.93581 | 25157 ft | 464 kts | 112° |
| 2026-04-22 10:34 | 24.32097 | 88.96864 | 24588 ft | 458 kts | 113° |
| 2026-04-22 10:34 | 24.30979 | 89.00106 | 24026 ft | 453 kts | 112° |
| 2026-04-22 10:35 | 24.29885 | 89.03321 | 23470 ft | 448 kts | 112° |
| 2026-04-22 10:35 | 24.28817 | 89.06493 | 22921 ft | 443 kts | 111° |
| 2026-04-22 10:35 | 24.27767 | 89.09643 | 22380 ft | 438 kts | 111° |
| 2026-04-22 10:35 | 24.26740 | 89.12755 | 21845 ft | 433 kts | 111° |
| 2026-04-22 10:36 | 24.25698 | 89.15815 | 21316 ft | 427 kts | 112° |
| 2026-04-22 10:36 | 24.24642 | 89.18827 | 20794 ft | 422 kts | 112° |
| 2026-04-22 10:36 | 24.23595 | 89.21798 | 20278 ft | 417 kts | 112° |
| 2026-04-22 10:36 | 24.22561 | 89.24734 | 19768 ft | 412 kts | 112° |
| 2026-04-22 10:37 | 24.21544 | 89.27642 | 19262 ft | 407 kts | 112° |
| 2026-04-22 10:37 | 24.19550 | 89.33343 | 18271 ft | 397 kts | 112° |
| 2026-04-22 10:37 | 24.18598 | 89.36151 | 17784 ft | 392 kts | 111° |
| 2026-04-22 10:38 | 24.17678 | 89.38941 | 17303 ft | 388 kts | 111° |
| 2026-04-22 10:38 | 24.16777 | 89.41697 | 16827 ft | 384 kts | 110° |
| 2026-04-22 10:38 | 24.15882 | 89.44426 | 16357 ft | 379 kts | 110° |
| 2026-04-22 10:38 | 24.14992 | 89.47115 | 15892 ft | 375 kts | 111° |
| 2026-04-22 10:39 | 24.14100 | 89.49775 | 15432 ft | 371 kts | 111° |
| 2026-04-22 10:39 | 24.13207 | 89.52394 | 15022 ft | 365 kts | 111° |
| 2026-04-22 10:39 | 24.12320 | 89.54971 | 14644 ft | 359 kts | 109° |
| 2026-04-22 10:39 | 24.11813 | 89.57610 | 14271 ft | 353 kts | 95° |
| 2026-04-22 10:40 | 24.11810 | 89.60261 | 13898 ft | 347 kts | 85° |
| 2026-04-22 10:40 | 24.12022 | 89.62859 | 13537 ft | 341 kts | 83° |
| 2026-04-22 10:40 | 24.12288 | 89.65411 | 13201 ft | 335 kts | 82° |
| 2026-04-22 10:40 | 24.12555 | 89.67922 | 12875 ft | 330 kts | 82° |
| 2026-04-22 10:41 | 24.12819 | 89.70389 | 12551 ft | 325 kts | 82° |
| 2026-04-22 10:41 | 24.13078 | 89.72824 | 12225 ft | 320 kts | 82° |
| 2026-04-22 10:41 | 24.13308 | 89.75222 | 11901 ft | 316 kts | 83° |
| 2026-04-22 10:41 | 24.13508 | 89.77597 | 11576 ft | 313 kts | 84° |
| 2026-04-22 10:42 | 24.13683 | 89.79951 | 11278 ft | 309 kts | 85° |
| 2026-04-22 10:42 | 24.13830 | 89.82282 | 11001 ft | 306 kts | 85° |
| 2026-04-22 10:42 | 24.13970 | 89.84587 | 10705 ft | 303 kts | 85° |
| 2026-04-22 10:42 | 24.14113 | 89.86874 | 10407 ft | 300 kts | 85° |
| 2026-04-22 10:43 | 24.14276 | 89.89139 | 10122 ft | 298 kts | 84° |
| 2026-04-22 10:43 | 24.14462 | 89.91375 | 9846 ft | 294 kts | 84° |
| 2026-04-22 10:43 | 24.14651 | 89.93590 | 9572 ft | 292 kts | 84° |
| 2026-04-22 10:43 | 24.14838 | 89.95789 | 9298 ft | 289 kts | 84° |
| 2026-04-22 10:44 | 24.15022 | 89.97964 | 9025 ft | 287 kts | 84° |
| 2026-04-22 10:44 | 24.15203 | 90.00125 | 8751 ft | 284 kts | 84° |
| 2026-04-22 10:44 | 24.15367 | 90.02265 | 8478 ft | 282 kts | 85° |
| 2026-04-22 10:44 | 24.15504 | 90.04397 | 8196 ft | 281 kts | 86° |
| 2026-04-22 10:45 | 24.15634 | 90.06527 | 7862 ft | 282 kts | 86° |
| 2026-04-22 10:45 | 24.15763 | 90.08660 | 7464 ft | 280 kts | 86° |
| 2026-04-22 10:45 | 24.15891 | 90.10779 | 7066 ft | 279 kts | 86° |
| 2026-04-22 10:45 | 24.15960 | 90.12887 | 6661 ft | 278 kts | 94° |
| 2026-04-22 10:46 | 24.15429 | 90.14863 | 6252 ft | 268 kts | 120° |
| 2026-04-22 10:46 | 24.14351 | 90.16470 | 5859 ft | 258 kts | 131° |
| 2026-04-22 10:46 | 24.13103 | 90.17815 | 5477 ft | 250 kts | 143° |
| 2026-04-22 10:46 | 24.11683 | 90.18899 | 5077 ft | 249 kts | 149° |
| 2026-04-22 10:47 | 24.10230 | 90.19912 | 4776 ft | 246 kts | 150° |
| 2026-04-22 10:47 | 24.08820 | 90.20923 | 4539 ft | 240 kts | 149° |
| 2026-04-22 10:47 | 24.07449 | 90.21930 | 4283 ft | 236 kts | 148° |
| 2026-04-22 10:47 | 24.06113 | 90.22919 | 4040 ft | 229 kts | 148° |
| 2026-04-22 10:48 | 24.04810 | 90.23897 | 3774 ft | 225 kts | 148° |
| 2026-04-22 10:48 | 24.03536 | 90.24841 | 3584 ft | 218 kts | 149° |
| 2026-04-22 10:48 | 24.02313 | 90.25744 | 3540 ft | 208 kts | 148° |
| 2026-04-22 10:48 | 24.01142 | 90.26626 | 3557 ft | 204 kts | 148° |
| 2026-04-22 10:49 | 23.99970 | 90.27513 | 3477 ft | 208 kts | 147° |
| 2026-04-22 10:49 | 23.98784 | 90.28420 | 3223 ft | 206 kts | 147° |
| 2026-04-22 10:49 | 23.97632 | 90.29304 | 2959 ft | 199 kts | 147° |
| 2026-04-22 10:49 | 23.96524 | 90.30156 | 2692 ft | 193 kts | 147° |
| 2026-04-22 10:50 | 23.95448 | 90.30989 | 2428 ft | 188 kts | 146° |
| 2026-04-22 10:50 | 23.94410 | 90.31808 | 2175 ft | 181 kts | 146° |
| 2026-04-22 10:50 | 23.94021 | 90.32121 | 2079 ft | 177 kts | 146° |
| 2026-04-22 10:50 | 23.93072 | 90.32887 | 1864 ft | 162 kts | 146° |
| 2026-04-22 10:51 | 23.92201 | 90.33582 | 1625 ft | 149 kts | 146° |
| 2026-04-22 10:51 | 23.91382 | 90.34211 | 1408 ft | 140 kts | 148° |
| 2026-04-22 10:51 | 23.90609 | 90.34825 | 1222 ft | 137 kts | 146° |
| 2026-04-22 10:51 | 23.89852 | 90.35448 | 1055 ft | 136 kts | 145° |
| 2026-04-22 10:52 | 23.89102 | 90.36068 | 899 ft | 136 kts | 146° |
| 2026-04-22 10:52 | 23.88335 | 90.36673 | 735 ft | 136 kts | 148° |
| 2026-04-22 10:52 | 23.87555 | 90.37254 | 569 ft | 137 kts | 148° |
| 2026-04-22 10:52 | 23.86777 | 90.37852 | 385 ft | 137 kts | 147° |
| 2026-04-22 10:53 | 23.86009 | 90.38461 | 198 ft | 136 kts | 146° |
| 2026-04-22 10:53 | 23.85247 | 90.39068 | 49 ft | 135 kts | 147° |
| 2026-04-22 10:53 | 23.84554 | 90.39604 | 41 ft | 110 kts | 146° |
| 2026-04-22 10:53 | 23.84089 | 90.39957 | 41 ft | 47 kts | 141° |
| 2026-04-22 10:54 | 23.83891 | 90.40126 | 41 ft | 33 kts | 142° |
| 2026-04-22 10:54 | 23.83759 | 90.40304 | 41 ft | 29 kts | 118° |
| 2026-04-22 10:54 | 23.83690 | 90.40499 | 41 ft | 25 kts | 100° |
| 2026-04-22 10:54 | 23.83715 | 90.40655 | 41 ft | 20 kts | 60° |
| 2026-04-22 10:55 | 23.83784 | 90.40775 | 41 ft | 17 kts | 53° |
| 2026-04-22 10:55 | 23.83855 | 90.40825 | 41 ft | 11 kts | 344° |
| 2026-04-22 10:55 | 23.83927 | 90.40779 | 41 ft | 13 kts | 324° |
| 2026-04-22 10:55 | 23.84012 | 90.40714 | 41 ft | 16 kts | 322° |
| 2026-04-22 10:56 | 23.84112 | 90.40632 | 41 ft | 20 kts | 323° |
| 2026-04-22 10:56 | 23.84226 | 90.40542 | 41 ft | 20 kts | 324° |
| 2026-04-22 10:56 | 23.84339 | 90.40451 | 41 ft | 20 kts | 324° |
| 2026-04-22 10:56 | 23.84450 | 90.40363 | 41 ft | 20 kts | 324° |
| 2026-04-22 10:57 | 23.84559 | 90.40277 | 41 ft | 19 kts | 324° |
| 2026-04-22 10:57 | 23.84666 | 90.40192 | 41 ft | 19 kts | 323° |
| 2026-04-22 10:57 | 23.84769 | 90.40109 | 41 ft | 18 kts | 323° |
| 2026-04-22 10:57 | 23.84871 | 90.40027 | 41 ft | 18 kts | 323° |
| 2026-04-22 10:58 | 23.84970 | 90.39946 | 41 ft | 18 kts | 323° |
| 2026-04-22 10:58 | 23.85074 | 90.39866 | 41 ft | 19 kts | 326° |
| 2026-04-22 10:58 | 23.85187 | 90.39784 | 41 ft | 20 kts | 324° |
| 2026-04-22 10:58 | 23.85300 | 90.39696 | 41 ft | 17 kts | 325° |
| 2026-04-22 10:59 | 23.85394 | 90.39623 | 41 ft | 15 kts | 324° |
| 2026-04-22 10:59 | 23.85456 | 90.39607 | 41 ft | 8 kts | 41° |
| 2026-04-22 10:59 | 23.85498 | 90.39660 | 41 ft | 10 kts | 51° |
| 2026-04-22 10:59 | 23.85553 | 90.39707 | 41 ft | 10 kts | 356° |
| 2026-04-22 11:00 | 23.85608 | 90.39668 | 41 ft | 8 kts | 322° |
| 2026-04-22 11:00 | 23.85638 | 90.39632 | 41 ft | 4 kts | 275° |
| 2026-04-22 11:00 | 23.85626 | 90.39610 | 41 ft | 3 kts | 231° |
| 2026-04-22 11:00 | 23.85624 | 90.39607 | 41 ft | 0 kts | 232° |